Yuma, AZ

11:06 AM MST on May 06, 2015 (GMT -0700)
APRSWXNET | | Change Station
CLOSE
Current Station
Personal Weather Station
Location: Yuma, AZ
Elevation: 182 ft
Nearby Weather Stations

Elev 182 ft 32.69 °N, 114.65 °W | Updated 35 minutes ago

Partly Cloudy
Partly Cloudy
80 °F
Feels Like 80 °F
N
5
Wind Variable Wind from South
Gusts 8.0 mph

Today
High -- | Low -- °F
--% Chance of Precip.
Yesterday
High -- | Low -- °F
Precip. -- in
5:47 AM 7:23 PM
Waning Gibbous, 93% visible
Pressure 29.77 in
Visibility 10.0 miles
Clouds Few 100 ft
Few 7000 ft
Scattered Clouds 18000 ft
Scattered Clouds 25000 ft
Heat Index 80 °F
Dew Point 55 °F
Humidity 43%
Rainfall in
Snow Depth Not available.
UV 8 out of 12
Pollen 8.00 out of 12
Air Quality Not available.
Flu Activity Local Activity
METAR KNYL 061757Z 18011G17KT 150V220 10SM FU FEW001 FEW070 SCT180 SCT250 27/11 A2977 RMK AO2 SLP079 FU FEW001 T02670111 10267 20194 58002

More Conditions Fewer Conditions

Pressure 29.77 in
Visibility 10.0 miles
Clouds Few 100 ft
Few 7000 ft
Scattered Clouds 18000 ft
Scattered Clouds 25000 ft
Heat Index 80 °F
Dew Point 55 °F
Humidity 43%
Rainfall in
Snow Depth Not available.
UV 8 out of 12
Pollen 8.00 out of 12
Air Quality Not available.
Flu Activity Local Activity
METAR KNYL 061757Z 18011G17KT 150V220 10SM FU FEW001 FEW070 SCT180 SCT250 27/11 A2977 RMK AO2 SLP079 FU FEW001 T02670111 10267 20194 58002

More Conditions Fewer Conditions

10-Day Weather Forecast

Almanac

Astronomy

May. 06, 2015 Rise Set
Actual Time
Civil Twilight
Nautical Twilight
Astronomical Twilight
Moon
Length of Visible Light
Length of Day
Tomorrow will be .
, % of the Moon is Illuminated

Today's Extremes

State Highs State Lows

Community

WunderPhotos

Upload Photos

1,818,965 photos uploaded!

WunderBlogs® & News

Nearby

Air Quality

  Air Quality AQ Index Pollutant
Not available.

Snow Depth

Station Depth Elevation

Earthquake Activity

City Distance Mag. Time & Date
Minimum magnitude displayed is 2.5.

Coastal Water Temperatures

Place Temperature

Stations

Nearby Weather Stations

Station Location Temp. Windchill Dew Point Humidity Wind Precip. Elev Updated Type